createdAt,value
2023-02-22T00:00:09.537Z,9.32
2023-02-22T00:05:16.723Z,9.32
2023-02-22T00:10:21.043Z,9.28
2023-02-22T00:15:27.320Z,9.31
2023-02-22T00:20:31.753Z,9.27
2023-02-22T00:25:35.584Z,9.28
2023-02-22T00:30:38.468Z,9.23
2023-02-22T00:35:45.900Z,9.22
2023-02-22T00:40:48.809Z,8.90
2023-02-22T00:45:52.011Z,8.99
2023-02-22T00:50:56.371Z,9.02
2023-02-22T00:55:59.325Z,9.06
2023-02-22T01:01:03.580Z,9.05
2023-02-22T01:06:08.085Z,9.09
2023-02-22T01:11:11.339Z,9.06
2023-02-22T01:16:15.068Z,9.08
2023-02-22T01:21:19.535Z,9.19
2023-02-22T01:26:22.429Z,9.20
2023-02-22T01:31:25.349Z,9.08
2023-02-22T01:36:29.594Z,9.10
2023-02-22T01:41:32.880Z,9.13
2023-02-22T01:46:35.840Z,8.87
2023-02-22T01:51:44.069Z,8.76
2023-02-22T01:56:51.127Z,9.04
2023-02-22T02:01:55.296Z,9.20
2023-02-22T02:07:05.988Z,9.19
2023-02-22T02:12:11.136Z,9.09
2023-02-22T02:17:17.628Z,9.16
2023-02-22T02:22:38.377Z,9.18
2023-02-22T02:28:02.680Z,9.14
2023-02-22T02:33:11.745Z,9.00
2023-02-22T02:38:26.528Z,9.08
2023-02-22T02:43:33.401Z,9.09
2023-02-22T02:48:43.142Z,8.94
2023-02-22T02:53:49.133Z,8.89
2023-02-22T02:58:54.387Z,8.94
2023-02-22T03:04:28.629Z,8.97
2023-02-22T03:09:41.964Z,8.89
2023-02-22T03:15:03.463Z,8.84
2023-02-22T03:20:13.709Z,8.91
2023-02-22T03:25:23.802Z,8.89
2023-02-22T03:30:37.215Z,8.90
2023-02-22T03:35:48.195Z,8.86
2023-02-22T03:40:55.430Z,8.88
2023-02-22T03:46:01.077Z,8.84
2023-02-22T03:51:06.628Z,8.87
2023-02-22T03:56:14.660Z,8.80
2023-02-22T04:01:19.893Z,8.77
2023-02-22T04:06:24.529Z,8.67
2023-02-22T04:11:28.902Z,8.65
2023-02-22T04:16:32.046Z,8.49
2023-02-22T04:21:37.464Z,8.46
2023-02-22T04:26:41.378Z,8.33
2023-02-22T04:31:44.401Z,8.29
2023-02-22T04:36:49.426Z,7.88
2023-02-22T04:41:52.606Z,7.76
2023-02-22T04:46:56.661Z,7.89
2023-02-22T04:52:01.163Z,8.07
2023-02-22T04:57:10.727Z,7.93
2023-02-22T05:02:13.759Z,8.17
2023-02-22T05:07:18.178Z,8.14
2023-02-22T05:12:21.499Z,8.16
2023-02-22T05:17:24.638Z,8.09
2023-02-22T05:22:29.179Z,8.19
2023-02-22T05:27:32.078Z,8.29
2023-02-22T05:32:35.258Z,8.24
2023-02-22T05:37:39.506Z,8.32
2023-02-22T05:42:42.537Z,8.23
2023-02-22T05:47:45.789Z,8.25
2023-02-22T05:52:50.511Z,8.29
2023-02-22T05:57:53.790Z,8.20
2023-02-22T06:02:57.761Z,8.25
2023-02-22T06:08:04.793Z,8.14
2023-02-22T06:13:08.529Z,8.08
2023-02-22T06:18:11.568Z,8.18
2023-02-22T06:23:15.859Z,8.31
2023-02-22T06:28:18.818Z,8.41
2023-02-22T06:33:21.788Z,8.21
2023-02-22T06:38:28.380Z,8.16
2023-02-22T06:43:31.338Z,8.26
2023-02-22T06:48:34.242Z,8.26
2023-02-22T06:53:38.568Z,8.16
2023-02-22T06:58:41.467Z,7.99
2023-02-22T07:03:44.379Z,7.99
2023-02-22T07:08:49.876Z,8.20
2023-02-22T07:13:52.724Z,8.43
2023-02-22T07:18:55.657Z,8.58
2023-02-22T07:24:00.124Z,8.69
2023-02-22T07:29:03.074Z,8.61
2023-02-22T07:34:06.045Z,8.32
2023-02-22T07:39:11.215Z,8.52
2023-02-22T07:44:14.173Z,8.21
2023-02-22T07:49:17.441Z,8.64
2023-02-22T07:54:21.924Z,8.35
2023-02-22T07:59:24.852Z,8.55
2023-02-22T08:04:28.166Z,8.86
2023-02-22T08:09:32.489Z,8.98
2023-02-22T08:14:35.457Z,8.94
2023-02-22T08:19:39.276Z,8.64
2023-02-22T08:24:43.601Z,8.97
2023-02-22T08:29:49.157Z,9.35
2023-02-22T08:34:53.046Z,9.59
2023-02-22T08:39:57.493Z,9.79
2023-02-22T08:45:00.452Z,9.58
2023-02-22T08:50:04.119Z,9.40
2023-02-22T08:55:09.008Z,9.59
2023-02-22T09:00:13.360Z,9.67
2023-02-22T09:05:17.221Z,9.72
2023-02-22T09:10:24.764Z,10.39
2023-02-22T09:15:28.949Z,10.74
2023-02-22T09:20:31.872Z,10.48
2023-02-22T09:25:36.220Z,10.54
2023-02-22T09:30:39.544Z,10.49
2023-02-22T09:35:46.429Z,10.69
2023-02-22T09:40:55.155Z,10.54
2023-02-22T09:46:30.665Z,10.55
2023-02-22T09:51:41.234Z,10.93
2023-02-22T09:56:47.553Z,11.41
2023-02-22T10:01:56.599Z,11.51
2023-02-22T10:07:07.009Z,11.20
2023-02-22T10:12:15.935Z,11.69
2023-02-22T10:17:30.840Z,11.89
2023-02-22T10:22:44.518Z,11.73
2023-02-22T10:27:56.502Z,11.98
2023-02-22T10:33:07.498Z,11.67
2023-02-22T10:38:18.419Z,11.43
2023-02-22T10:43:23.444Z,11.87
2023-02-22T10:48:27.840Z,11.82
2023-02-22T10:53:32.702Z,12.01
2023-02-22T10:58:50.244Z,11.62
2023-02-22T11:04:08.835Z,11.87
2023-02-22T11:09:15.031Z,11.94
2023-02-22T11:14:29.457Z,11.68
2023-02-22T11:19:34.105Z,11.90
2023-02-22T11:24:49.339Z,11.31
2023-02-22T11:29:54.166Z,11.68
2023-02-22T11:35:21.837Z,11.76
2023-02-22T11:40:24.945Z,11.60
2023-02-22T11:45:29.199Z,11.68
2023-02-22T11:50:34.927Z,11.79
2023-02-22T11:55:45.448Z,11.96
2023-02-22T12:00:54.923Z,11.78
2023-02-22T12:06:19.460Z,11.62
2023-02-22T12:11:28.638Z,11.65
2023-02-22T12:16:44.857Z,11.97
2023-02-22T12:21:53.954Z,11.50
2023-02-22T12:27:04.078Z,11.84
2023-02-22T12:32:17.228Z,12.22
2023-02-22T12:37:27.035Z,12.31
2023-02-22T12:42:43.433Z,12.45
2023-02-22T12:47:56.705Z,11.96
2023-02-22T12:53:05.403Z,11.79
2023-02-22T12:58:20.391Z,12.16
2023-02-22T13:03:34.290Z,12.47
2023-02-22T13:08:43.113Z,12.45
2023-02-22T13:13:54.576Z,12.11
2023-02-22T13:19:04.541Z,11.92
2023-02-22T13:24:19.624Z,12.04
2023-02-22T13:29:28.418Z,12.31
2023-02-22T13:34:56.775Z,12.24
2023-02-22T13:40:21.073Z,12.41
2023-02-22T13:45:46.393Z,12.37
2023-02-22T13:51:06.609Z,12.39
2023-02-22T13:56:09.586Z,12.32
2023-02-22T14:01:45.658Z,12.44
2023-02-22T14:06:48.980Z,12.58
2023-02-22T14:11:57.939Z,12.11
2023-02-22T14:17:25.248Z,12.34
2023-02-22T14:22:30.167Z,12.26
2023-02-22T14:27:41.402Z,11.89
2023-02-22T14:32:48.930Z,12.27
2023-02-22T14:37:57.646Z,12.02
2023-02-22T14:43:06.280Z,12.13
2023-02-22T14:48:20.358Z,12.22
2023-02-22T14:53:33.032Z,11.93
2023-02-22T14:58:41.794Z,12.15
2023-02-22T15:03:51.355Z,12.14
2023-02-22T15:09:09.869Z,12.27
2023-02-22T15:14:25.725Z,12.04
2023-02-22T15:19:34.762Z,12.07
2023-02-22T15:24:38.875Z,11.90
2023-02-22T15:29:44.574Z,11.86
2023-02-22T15:34:48.807Z,11.89
2023-02-22T15:39:59.475Z,11.73
2023-02-22T15:45:02.581Z,11.73
2023-02-22T15:50:21.230Z,11.52
2023-02-22T15:55:28.174Z,11.47
2023-02-22T16:00:37.020Z,11.35
2023-02-22T16:05:44.970Z,11.21
2023-02-22T16:10:54.523Z,11.17
2023-02-22T16:16:03.455Z,10.98
2023-02-22T16:21:12.903Z,10.79
2023-02-22T16:26:28.505Z,10.69
2023-02-22T16:31:34.719Z,10.61
2023-02-22T16:36:42.550Z,10.59
2023-02-22T16:41:45.647Z,10.54
2023-02-22T16:46:48.605Z,10.45
2023-02-22T16:51:55.341Z,10.38
2023-02-22T16:57:00.333Z,10.32
2023-02-22T17:02:07.527Z,10.05
2023-02-22T17:07:11.886Z,9.72
2023-02-22T17:12:15.024Z,9.80
2023-02-22T17:17:18.447Z,9.61
2023-02-22T17:22:23.800Z,9.45
2023-02-22T17:27:26.684Z,9.50
2023-02-22T17:32:29.667Z,9.51
2023-02-22T17:37:33.963Z,9.34
2023-02-22T17:42:36.880Z,9.27
2023-02-22T17:47:39.775Z,9.00
2023-02-22T17:52:44.463Z,9.09
2023-02-22T17:57:48.908Z,8.93
2023-02-22T18:02:52.674Z,8.68
2023-02-22T18:07:57.172Z,8.61
2023-02-22T18:13:01.969Z,8.47
2023-02-22T18:18:06.099Z,8.53
2023-02-22T18:23:13.552Z,8.55
2023-02-22T18:28:17.591Z,8.49
2023-02-22T18:33:21.391Z,8.50
2023-02-22T18:38:25.965Z,8.39
2023-02-22T18:43:29.119Z,8.54
2023-02-22T18:48:32.825Z,8.43
2023-02-22T18:53:37.986Z,8.19
2023-02-22T18:58:43.229Z,8.31
2023-02-22T19:03:47.397Z,8.23
2023-02-22T19:08:52.373Z,8.11
2023-02-22T19:13:58.575Z,8.05
2023-02-22T19:19:01.511Z,8.06
2023-02-22T19:24:06.568Z,7.94
2023-02-22T19:29:09.511Z,7.81
2023-02-22T19:34:14.618Z,7.75
2023-02-22T19:39:20.956Z,7.69
2023-02-22T19:44:24.665Z,7.60
2023-02-22T19:49:29.118Z,7.62
2023-02-22T19:54:34.099Z,7.57
2023-02-22T19:59:37.803Z,7.17
2023-02-22T20:04:40.830Z,7.15
2023-02-22T20:09:45.186Z,7.24
2023-02-22T20:14:48.200Z,7.17
2023-02-22T20:19:51.174Z,7.16
2023-02-22T20:24:55.458Z,7.12
2023-02-22T20:29:58.400Z,7.10
2023-02-22T20:35:01.472Z,7.06
2023-02-22T20:40:06.615Z,6.97
2023-02-22T20:45:11.973Z,6.78
2023-02-22T20:50:15.480Z,6.66
2023-02-22T20:55:20.787Z,6.78
2023-02-22T21:00:23.773Z,6.69
2023-02-22T21:05:26.859Z,6.63
2023-02-22T21:10:31.145Z,6.62
2023-02-22T21:15:34.944Z,6.54
2023-02-22T21:20:40.785Z,6.54
2023-02-22T21:25:53.074Z,6.49
2023-02-22T21:30:56.186Z,6.45
2023-02-22T21:35:59.417Z,6.35
2023-02-22T21:41:03.698Z,6.41
2023-02-22T21:46:08.062Z,6.04
2023-02-22T21:51:13.891Z,6.18
2023-02-22T21:56:21.059Z,6.16
2023-02-22T22:01:27.201Z,6.15
2023-02-22T22:06:32.763Z,6.16
2023-02-22T22:11:37.346Z,6.10
2023-02-22T22:16:40.658Z,6.06
2023-02-22T22:21:43.735Z,5.82
2023-02-22T22:26:51.106Z,6.00
2023-02-22T22:31:54.530Z,5.90
2023-02-22T22:36:58.668Z,5.81
2023-02-22T22:42:02.943Z,5.84
2023-02-22T22:47:06.243Z,5.84
2023-02-22T22:52:10.413Z,5.73
2023-02-22T22:57:14.654Z,5.42
2023-02-22T23:02:20.359Z,5.58
2023-02-22T23:07:23.259Z,5.36
2023-02-22T23:12:31.541Z,5.30
2023-02-22T23:17:41.260Z,5.27
2023-02-22T23:22:47.230Z,5.16
2023-02-22T23:27:52.264Z,5.14
2023-02-22T23:32:57.445Z,5.19
2023-02-22T23:38:00.357Z,5.06
2023-02-22T23:43:05.676Z,5.02
2023-02-22T23:48:08.587Z,5.24
2023-02-22T23:53:15.190Z,5.10
2023-02-22T23:58:22.803Z,5.08
